Time;durP1;ratioP1;P1;durP2;ratioP2;P2;SDS_P1;SDS_P2;PMS_P1;PMS_P2;Temp;Humidity;BMP_temperature;BMP_pressure;BME280_temperature;BME280_humidity;BME280_pressure;Samples;Min_cycle;Max_cycle;Signal;HPM_P1;HPM_P2
2022/10/23 00:02:55;;;;;;;33.13;17.40;;;;;;;;;;10276972;28;20349;-75
2022/10/23 00:07:57;;;;;;;32.47;16.67;;;;;;;;;;10254940;28;20027;-74
2022/10/23 00:12:57;;;;;;;34.42;18.30;;;;;;;;;;10275071;28;20030;-74
2022/10/23 00:17:58;;;;;;;35.80;17.40;;;;;;;;;;10265797;28;20031;-73
2022/10/23 00:22:58;;;;;;;31.55;15.68;;;;;;;;;;10261582;28;20084;-78
2022/10/23 00:27:58;;;;;;;26.77;14.50;;;;;;;;;;10283761;28;20035;-74
2022/10/23 00:32:59;;;;;;;40.95;15.20;;;;;;;;;;10268478;28;20078;-78
2022/10/23 00:37:59;;;;;;;31.57;15.60;;;;;;;;;;10268568;28;20583;-74
2022/10/23 00:42:59;;;;;;;29.25;15.10;;;;;;;;;;10271304;28;20031;-77
2022/10/23 00:48:00;;;;;;;35.90;14.40;;;;;;;;;;10269335;28;20146;-76
2022/10/23 00:53:02;;;;;;;35.47;15.85;;;;;;;;;;10254125;28;20027;-76
2022/10/23 00:58:02;;;;;;;26.55;13.15;;;;;;;;;;10271755;28;20019;-79
2022/10/23 01:03:03;;;;;;;24.33;13.77;;;;;;;;;;10271650;28;20033;-73
2022/10/23 01:08:09;;;;;;;28.88;13.32;;;;;;;;;;10268749;28;20153;-75
2022/10/23 01:13:35;;;;;;;33.83;18.52;;;;;;;;;;10273901;28;20035;-81
2022/10/23 01:18:39;;;;;;;28.05;16.45;;;;;;;;;;10280287;28;20062;-74
2022/10/23 01:24:18;;;;;;;40.88;20.17;;;;;;;;;;10285231;28;20387;-78
2022/10/23 01:29:23;;;;;;;43.38;19.13;;;;;;;;;;10162449;29;20028;-80
2022/10/23 01:34:34;;;;;;;40.90;18.92;;;;;;;;;;10266266;28;20042;-77
2022/10/23 01:39:37;;;;;;;36.20;17.35;;;;;;;;;;10268559;28;20031;-79
2022/10/23 01:44:37;;;;;;;38.20;18.77;;;;;;;;;;10284965;28;20027;-82
2022/10/23 01:49:39;;;;;;;36.92;18.88;;;;;;;;;;10285164;28;20022;-79
2022/10/23 01:54:41;;;;;;;36.78;18.10;;;;;;;;;;10284003;28;20027;-78
2022/10/23 01:59:50;;;;;;;34.90;17.35;;;;;;;;;;10284101;28;20030;-76
2022/10/23 02:05:13;;;;;;;39.42;17.83;;;;;;;;;;10285226;28;20390;-78
2022/10/23 02:10:13;;;;;;;34.85;15.98;;;;;;;;;;10284072;28;20046;-81
2022/10/23 02:15:20;;;;;;;34.15;19.35;;;;;;;;;;10283766;28;20129;-73
2022/10/23 02:20:39;;;;;;;34.10;17.85;;;;;;;;;;10268796;28;20082;-78
2022/10/23 02:25:50;;;;;;;33.17;16.63;;;;;;;;;;10287821;28;20507;-74
2022/10/23 02:30:51;;;;;;;33.83;17.30;;;;;;;;;;10289214;28;20130;-76
2022/10/23 02:35:51;;;;;;;33.25;16.90;;;;;;;;;;10288528;28;20019;-81
2022/10/23 02:40:52;;;;;;;30.97;17.67;;;;;;;;;;10283884;28;20022;-73
2022/10/23 02:46:04;;;;;;;28.13;15.10;;;;;;;;;;10282709;28;20027;-78
2022/10/23 02:51:08;;;;;;;31.20;16.55;;;;;;;;;;10282540;28;20014;-78
2022/10/23 02:56:12;;;;;;;29.05;15.07;;;;;;;;;;10279554;28;20489;-78
2022/10/23 03:01:20;;;;;;;25.30;14.60;;;;;;;;;;10281999;28;20027;-76
2022/10/23 03:06:21;;;;;;;24.17;13.57;;;;;;;;;;10281438;28;20031;-77
2022/10/23 03:11:21;;;;;;;29.65;14.90;;;;;;;;;;10278954;28;20038;-76
2022/10/23 03:16:24;;;;;;;35.42;16.58;;;;;;;;;;10281359;28;20059;-79
2022/10/23 03:21:25;;;;;;;27.20;14.65;;;;;;;;;;10280966;28;20493;-76
2022/10/23 03:26:25;;;;;;;28.60;14.98;;;;;;;;;;10280487;28;20034;-74
2022/10/23 03:31:25;;;;;;;35.70;17.25;;;;;;;;;;10280246;28;20573;-76
2022/10/23 03:36:25;;;;;;;29.80;14.13;;;;;;;;;;10280513;28;20034;-79
2022/10/23 03:41:26;;;;;;;34.10;12.63;;;;;;;;;;10279647;28;20109;-74
2022/10/23 03:46:26;;;;;;;32.40;14.63;;;;;;;;;;10275875;28;20023;-76
2022/10/23 03:51:26;;;;;;;27.23;12.63;;;;;;;;;;10280689;28;20023;-74
2022/10/23 03:56:26;;;;;;;27.27;11.98;;;;;;;;;;10279589;28;20497;-78
2022/10/23 04:01:27;;;;;;;22.15;10.93;;;;;;;;;;10280173;28;20038;-77
2022/10/23 04:06:28;;;;;;;22.83;9.00;;;;;;;;;;10278865;28;20092;-78
2022/10/23 04:11:28;;;;;;;20.45;9.43;;;;;;;;;;10276626;28;20035;-79
2022/10/23 04:16:28;;;;;;;20.02;10.05;;;;;;;;;;10279348;28;20034;-78
2022/10/23 04:21:29;;;;;;;15.95;8.30;;;;;;;;;;10278568;28;20129;-74
2022/10/23 04:26:29;;;;;;;23.27;7.95;;;;;;;;;;10280013;28;20039;-77
2022/10/23 04:31:29;;;;;;;12.10;6.95;;;;;;;;;;10277613;28;20419;-74
2022/10/23 04:36:30;;;;;;;18.40;7.20;;;;;;;;;;10278444;28;20058;-77
2022/10/23 04:41:31;;;;;;;15.98;7.50;;;;;;;;;;10277546;28;20038;-77
2022/10/23 04:46:31;;;;;;;21.70;7.78;;;;;;;;;;10277169;28;20087;-77
2022/10/23 04:51:31;;;;;;;31.13;8.98;;;;;;;;;;10274091;28;20029;-80
2022/10/23 04:56:31;;;;;;;17.77;8.68;;;;;;;;;;10278975;28;20409;-77
2022/10/23 05:01:32;;;;;;;23.83;9.30;;;;;;;;;;10294247;28;20027;-77
2022/10/23 05:06:32;;;;;;;17.48;8.50;;;;;;;;;;10278391;28;20030;-77
2022/10/23 05:11:33;;;;;;;20.00;9.57;;;;;;;;;;10284391;28;20072;-82
2022/10/23 05:16:52;;;;;;;21.92;9.23;;;;;;;;;;10296241;28;20531;-75
2022/10/23 05:21:54;;;;;;;18.52;7.28;;;;;;;;;;10278029;28;20544;-78
2022/10/23 05:26:55;;;;;;;17.67;7.55;;;;;;;;;;10293508;28;20465;-73
2022/10/23 05:31:57;;;;;;;22.13;7.40;;;;;;;;;;10278590;28;20170;-72
2022/10/23 05:36:57;;;;;;;23.33;7.35;;;;;;;;;;10275031;28;20027;-78
2022/10/23 05:41:58;;;;;;;21.02;7.55;;;;;;;;;;10277029;28;20031;-72
2022/10/23 05:46:58;;;;;;;19.63;6.95;;;;;;;;;;10293150;28;20065;-77
2022/10/23 05:51:59;;;;;;;15.45;7.13;;;;;;;;;;10277260;28;20081;-77
2022/10/23 05:56:59;;;;;;;25.13;10.88;;;;;;;;;;10278565;28;20382;-77
2022/10/23 06:01:59;;;;;;;25.00;10.70;;;;;;;;;;10299744;28;20428;-79
2022/10/23 06:07:00;;;;;;;25.23;11.43;;;;;;;;;;10272248;28;20062;-77
2022/10/23 06:12:01;;;;;;;21.27;11.13;;;;;;;;;;10284342;28;20026;-77
2022/10/23 06:17:01;;;;;;;23.10;8.77;;;;;;;;;;10297806;28;20539;-78
2022/10/23 06:22:03;;;;;;;17.83;8.55;;;;;;;;;;10258861;28;20039;-80
2022/10/23 06:27:04;;;;;;;16.73;7.63;;;;;;;;;;10283539;28;20026;-79
2022/10/23 06:32:04;;;;;;;17.02;7.28;;;;;;;;;;10282671;28;20050;-76
2022/10/23 06:37:05;;;;;;;16.17;6.68;;;;;;;;;;10273912;28;20027;-82
2022/10/23 06:42:06;;;;;;;11.95;4.75;;;;;;;;;;10258534;28;20035;-82
2022/10/23 06:47:09;;;;;;;15.57;5.07;;;;;;;;;;10272405;28;20042;-78
2022/10/23 06:52:09;;;;;;;14.23;6.10;;;;;;;;;;10282735;28;20015;-77
2022/10/23 06:57:09;;;;;;;15.65;6.40;;;;;;;;;;10282907;28;20038;-80
2022/10/23 07:02:09;;;;;;;8.20;4.00;;;;;;;;;;10270420;28;20027;-78
2022/10/23 07:07:10;;;;;;;14.57;7.43;;;;;;;;;;10272670;28;20037;-73
2022/10/23 07:12:12;;;;;;;11.30;4.85;;;;;;;;;;10295267;28;20505;-80
2022/10/23 07:17:12;;;;;;;11.73;4.57;;;;;;;;;;10294906;28;20046;-74
2022/10/23 07:22:13;;;;;;;9.45;4.32;;;;;;;;;;10295679;28;20041;-81
2022/10/23 07:27:13;;;;;;;15.82;4.95;;;;;;;;;;10241093;28;20429;-83
2022/10/23 07:32:14;;;;;;;11.10;5.07;;;;;;;;;;10281931;28;20058;-76
2022/10/23 07:37:14;;;;;;;10.70;4.65;;;;;;;;;;10308962;28;20094;-79
2022/10/23 07:42:14;;;;;;;25.98;7.53;;;;;;;;;;10285280;28;20023;-78
2022/10/23 07:47:14;;;;;;;8.57;4.90;;;;;;;;;;10283394;28;20034;-78
2022/10/23 07:52:15;;;;;;;11.80;4.40;;;;;;;;;;10264367;28;20031;-77
2022/10/23 07:57:15;;;;;;;15.60;4.70;;;;;;;;;;10267017;28;20030;-79
2022/10/23 08:02:16;;;;;;;23.05;6.30;;;;;;;;;;10283844;28;20125;-73
2022/10/23 08:07:16;;;;;;;12.43;4.28;;;;;;;;;;10282699;28;20059;-76
2022/10/23 08:12:16;;;;;;;8.93;4.30;;;;;;;;;;10280500;28;20019;-80
2022/10/23 08:17:16;;;;;;;8.98;4.18;;;;;;;;;;10280744;28;20023;-74
2022/10/23 08:22:17;;;;;;;9.70;3.78;;;;;;;;;;10281654;28;20126;-78
2022/10/23 08:27:17;;;;;;;11.82;4.15;;;;;;;;;;10279858;28;20082;-78
2022/10/23 08:32:17;;;;;;;5.88;3.63;;;;;;;;;;10295822;28;20046;-79
2022/10/23 08:37:17;;;;;;;8.10;3.37;;;;;;;;;;10280175;28;20019;-77
2022/10/23 08:42:20;;;;;;;8.93;3.60;;;;;;;;;;10279428;28;20409;-78
2022/10/23 08:47:28;;;;;;;10.63;4.15;;;;;;;;;;10279601;28;20105;-77
2022/10/23 08:52:36;;;;;;;6.60;3.75;;;;;;;;;;10280670;28;20573;-78
2022/10/23 08:57:39;;;;;;;7.07;3.42;;;;;;;;;;10279595;28;20073;-79
2022/10/23 09:02:41;;;;;;;9.52;4.05;;;;;;;;;;10278802;28;20559;-75
2022/10/23 09:08:04;;;;;;;8.07;3.85;;;;;;;;;;10279197;28;20589;-77
2022/10/23 09:13:14;;;;;;;11.95;3.20;;;;;;;;;;10288039;28;20442;-78
2022/10/23 09:18:15;;;;;;;5.10;2.88;;;;;;;;;;10258029;28;20073;-79
2022/10/23 09:23:20;;;;;;;8.73;3.50;;;;;;;;;;10278239;28;20089;-76
2022/10/23 09:28:21;;;;;;;10.05;3.55;;;;;;;;;;10278884;28;20019;-80
2022/10/23 09:33:24;;;;;;;5.35;2.50;;;;;;;;;;10281697;28;20059;-80
2022/10/23 09:38:24;;;;;;;11.80;2.78;;;;;;;;;;10274219;28;20103;-79
2022/10/23 09:43:26;;;;;;;8.48;2.38;;;;;;;;;;10286137;28;20041;-77
2022/10/23 09:48:26;;;;;;;6.05;2.00;;;;;;;;;;10286304;28;20081;-81
2022/10/23 09:53:30;;;;;;;6.63;6.03;;;;;;;;;;10283238;28;20114;-80
2022/10/23 09:58:32;;;;;;;5.70;1.77;;;;;;;;;;10285291;28;20062;-78
2022/10/23 10:03:33;;;;;;;6.25;5.00;;;;;;;;;;10301762;28;20031;-77
2022/10/23 10:08:45;;;;;;;8.85;5.20;;;;;;;;;;10285898;28;20023;-81
2022/10/23 10:13:48;;;;;;;5.68;1.60;;;;;;;;;;10288076;28;21214;-74
2022/10/23 10:18:48;;;;;;;3.85;1.10;;;;;;;;;;10301131;28;20540;-79
2022/10/23 10:23:53;;;;;;;3.20;1.15;;;;;;;;;;10292118;28;20546;-77
2022/10/23 10:28:56;;;;;;;3.78;1.48;;;;;;;;;;10257587;28;20027;-80
2022/10/23 10:33:56;;;;;;;3.42;1.25;;;;;;;;;;10270778;28;20086;-79
2022/10/23 10:39:02;;;;;;;7.10;1.50;;;;;;;;;;10281892;28;20137;-81
2022/10/23 10:44:20;;;;;;;8.18;1.85;;;;;;;;;;10282476;28;20065;-73
2022/10/23 10:49:21;;;;;;;4.03;1.30;;;;;;;;;;10276714;28;20128;-77
2022/10/23 10:54:26;;;;;;;3.80;1.20;;;;;;;;;;10272544;28;20497;-80
2022/10/23 10:59:27;;;;;;;15.55;3.65;;;;;;;;;;10285545;28;20050;-77
2022/10/23 11:04:28;;;;;;;7.35;3.28;;;;;;;;;;10294070;28;20086;-73
2022/10/23 11:09:29;;;;;;;2.33;1.37;;;;;;;;;;10283610;28;20386;-79
2022/10/23 11:14:31;;;;;;;2.42;1.17;;;;;;;;;;10258040;28;20282;-75
2022/10/23 11:19:39;;;;;;;1.85;1.20;;;;;;;;;;10269747;28;20027;-79
2022/10/23 11:24:58;;;;;;;7.40;1.48;;;;;;;;;;10268299;28;20037;-78
2022/10/23 11:30:02;;;;;;;4.72;1.30;;;;;;;;;;10281545;28;20476;-80
2022/10/23 11:35:21;;;;;;;3.85;1.45;;;;;;;;;;10271486;28;20060;-79
2022/10/23 11:40:23;;;;;;;5.45;1.73;;;;;;;;;;10273245;28;20476;-83
2022/10/23 11:45:26;;;;;;;4.10;1.58;;;;;;;;;;10285030;28;20806;-79
2022/10/23 11:50:28;;;;;;;3.15;2.40;;;;;;;;;;10284378;28;20094;-75
2022/10/23 11:55:29;;;;;;;2.25;1.67;;;;;;;;;;10271889;28;20057;-77
2022/10/23 12:00:30;;;;;;;4.57;2.22;;;;;;;;;;10266714;28;20034;-79
2022/10/23 12:05:40;;;;;;;5.80;1.58;;;;;;;;;;10268440;28;20463;-78
2022/10/23 12:10:46;;;;;;;6.60;2.05;;;;;;;;;;10270539;28;20497;-79
2022/10/23 12:15:51;;;;;;;4.05;2.10;;;;;;;;;;10267691;28;20035;-77
2022/10/23 12:21:02;;;;;;;4.32;1.67;;;;;;;;;;10285874;28;20023;-78
2022/10/23 12:26:06;;;;;;;3.88;2.33;;;;;;;;;;10266997;28;20031;-74
2022/10/23 12:31:06;;;;;;;5.68;1.67;;;;;;;;;;10265069;28;20074;-81
2022/10/23 12:36:25;;;;;;;2.83;1.58;;;;;;;;;;10290430;28;20441;-75
2022/10/23 12:41:26;;;;;;;2.88;1.60;;;;;;;;;;10272806;28;20102;-78
2022/10/23 12:46:26;;;;;;;2.95;1.50;;;;;;;;;;10252520;28;20105;-78
2022/10/23 12:51:28;;;;;;;3.03;1.58;;;;;;;;;;10282995;28;20033;-77
2022/10/23 12:56:35;;;;;;;4.28;1.58;;;;;;;;;;10268206;28;20575;-74
2022/10/23 13:01:36;;;;;;;1.87;1.17;;;;;;;;;;10248356;28;20061;-77
2022/10/23 13:06:37;;;;;;;2.80;1.17;;;;;;;;;;10269364;28;20500;-72
2022/10/23 13:11:38;;;;;;;4.47;1.45;;;;;;;;;;10273782;28;20118;-81
2022/10/23 13:16:38;;;;;;;4.32;1.55;;;;;;;;;;10277139;28;20101;-73
2022/10/23 13:21:44;;;;;;;3.55;2.25;;;;;;;;;;10265848;28;20041;-73
2022/10/23 13:26:45;;;;;;;2.30;1.33;;;;;;;;;;10281079;28;20038;-76
2022/10/23 13:31:45;;;;;;;3.15;1.60;;;;;;;;;;10287765;28;20062;-76
2022/10/23 13:37:09;;;;;;;2.60;1.30;;;;;;;;;;10275184;28;20050;-74
2022/10/23 13:42:14;;;;;;;9.57;1.70;;;;;;;;;;10277779;28;20037;-78
2022/10/23 13:47:15;;;;;;;8.07;1.60;;;;;;;;;;10290688;28;20038;-75
2022/10/23 13:52:18;;;;;;;2.83;1.30;;;;;;;;;;10250932;28;20393;-80
2022/10/23 13:57:19;;;;;;;6.38;1.67;;;;;;;;;;10271051;28;20054;-78
2022/10/23 14:02:20;;;;;;;3.78;1.45;;;;;;;;;;10296161;28;20023;-79
2022/10/23 14:07:20;;;;;;;7.75;1.75;;;;;;;;;;10269063;28;20023;-81
2022/10/23 14:12:21;;;;;;;3.42;1.38;;;;;;;;;;10280606;28;20026;-78
2022/10/23 14:17:21;;;;;;;5.20;1.42;;;;;;;;;;10281887;28;20019;-80
2022/10/23 14:22:21;;;;;;;6.07;1.77;;;;;;;;;;10267977;28;20127;-80
2022/10/23 14:27:23;;;;;;;3.28;1.20;;;;;;;;;;10267856;28;20028;-78
2022/10/23 14:32:23;;;;;;;5.40;1.67;;;;;;;;;;10267804;28;20600;-75
2022/10/23 14:37:23;;;;;;;4.87;1.77;;;;;;;;;;10268524;28;20093;-81
2022/10/23 14:42:24;;;;;;;4.10;1.70;;;;;;;;;;10269045;28;20020;-76
2022/10/23 14:47:24;;;;;;;3.33;1.55;;;;;;;;;;10262943;28;20031;-77
2022/10/23 14:52:25;;;;;;;5.78;1.83;;;;;;;;;;10268429;28;20511;-80
2022/10/23 14:57:26;;;;;;;4.32;2.13;;;;;;;;;;10263926;28;20054;-80
2022/10/23 15:02:26;;;;;;;3.33;1.77;;;;;;;;;;10274829;28;20114;-74
2022/10/23 15:07:26;;;;;;;10.25;2.70;;;;;;;;;;10282321;28;20264;-74
2022/10/23 15:12:27;;;;;;;6.00;2.05;;;;;;;;;;10281213;28;20089;-82
2022/10/23 15:17:27;;;;;;;3.72;1.92;;;;;;;;;;10260944;28;20039;-79
2022/10/23 15:22:28;;;;;;;5.22;2.58;;;;;;;;;;10268574;28;20019;-81
2022/10/23 15:27:28;;;;;;;5.47;2.35;;;;;;;;;;10281408;28;20027;-78
2022/10/23 15:32:28;;;;;;;6.30;2.15;;;;;;;;;;10269170;28;20057;-80
2022/10/23 15:37:28;;;;;;;4.78;3.00;;;;;;;;;;10273478;28;20501;-81
2022/10/23 15:42:29;;;;;;;7.18;2.35;;;;;;;;;;10260042;28;20037;-80
2022/10/23 15:47:30;;;;;;;4.97;2.25;;;;;;;;;;10268211;28;20031;-79
2022/10/23 15:52:31;;;;;;;6.93;2.20;;;;;;;;;;10261802;28;20445;-77
2022/10/23 15:57:31;;;;;;;6.00;2.50;;;;;;;;;;10253296;28;20034;-78
2022/10/23 16:02:31;;;;;;;6.57;2.55;;;;;;;;;;10264203;28;20046;-79
2022/10/23 16:07:31;;;;;;;6.95;2.78;;;;;;;;;;10284969;28;20092;-78
2022/10/23 16:12:32;;;;;;;6.00;2.53;;;;;;;;;;10272493;28;20516;-75
2022/10/23 16:17:32;;;;;;;9.73;3.33;;;;;;;;;;10282216;28;20031;-76
2022/10/23 16:22:32;;;;;;;10.32;3.53;;;;;;;;;;10293236;28;20114;-73
2022/10/23 16:27:32;;;;;;;8.77;3.90;;;;;;;;;;10271785;28;20027;-75
2022/10/23 16:32:33;;;;;;;7.43;3.05;;;;;;;;;;10273180;28;20121;-78
2022/10/23 16:37:34;;;;;;;5.70;3.13;;;;;;;;;;10266917;28;20027;-75
2022/10/23 16:42:36;;;;;;;8.55;3.00;;;;;;;;;;10262700;28;20039;-79
2022/10/23 16:47:37;;;;;;;5.38;3.10;;;;;;;;;;10251814;28;20049;-81
2022/10/23 16:52:37;;;;;;;6.67;4.13;;;;;;;;;;10266714;28;20045;-80
2022/10/23 16:57:38;;;;;;;12.98;3.00;;;;;;;;;;10283252;28;20505;-80
2022/10/23 17:02:39;;;;;;;8.25;3.55;;;;;;;;;;10266685;28;20046;-79
2022/10/23 17:07:39;;;;;;;10.00;4.25;;;;;;;;;;10276927;28;20035;-77
2022/10/23 17:12:39;;;;;;;10.77;4.27;;;;;;;;;;10259151;28;20037;-76
2022/10/23 17:17:40;;;;;;;9.45;4.50;;;;;;;;;;10281931;28;20033;-79
2022/10/23 17:22:40;;;;;;;14.50;4.95;;;;;;;;;;10281513;28;20026;-77
2022/10/23 17:27:41;;;;;;;11.48;5.03;;;;;;;;;;10257330;28;20042;-77
2022/10/23 17:32:41;;;;;;;11.07;5.15;;;;;;;;;;10261075;28;20128;-78
2022/10/23 17:37:41;;;;;;;15.18;5.50;;;;;;;;;;10263876;28;20042;-77
2022/10/23 17:42:43;;;;;;;11.30;4.97;;;;;;;;;;10261963;28;20081;-79
2022/10/23 17:47:43;;;;;;;23.23;4.95;;;;;;;;;;10255133;28;20031;-79
2022/10/23 17:52:44;;;;;;;8.80;4.82;;;;;;;;;;10263757;28;20034;-76
2022/10/23 17:57:44;;;;;;;7.55;3.75;;;;;;;;;;10268921;28;20039;-74
2022/10/23 18:02:44;;;;;;;9.00;4.50;;;;;;;;;;10283898;28;20031;-81
2022/10/23 18:07:46;;;;;;;12.07;4.70;;;;;;;;;;10263845;28;20023;-78
2022/10/23 18:12:46;;;;;;;13.82;5.70;;;;;;;;;;10282405;28;20470;-77
2022/10/23 18:17:47;;;;;;;14.52;7.13;;;;;;;;;;10270205;28;20031;-78
2022/10/23 18:22:47;;;;;;;11.57;6.10;;;;;;;;;;10287429;28;20065;-79
2022/10/23 18:27:47;;;;;;;14.88;5.95;;;;;;;;;;10260956;28;20596;-79
2022/10/23 18:32:47;;;;;;;10.87;6.60;;;;;;;;;;10270463;28;20058;-79
2022/10/23 18:37:48;;;;;;;16.70;6.95;;;;;;;;;;10269531;28;20096;-78
2022/10/23 18:42:48;;;;;;;16.27;7.20;;;;;;;;;;10273934;28;20798;-80
2022/10/23 18:47:49;;;;;;;14.90;7.10;;;;;;;;;;10285177;28;20031;-83
2022/10/23 18:52:49;;;;;;;14.40;6.67;;;;;;;;;;10273718;28;20034;-80
2022/10/23 18:57:49;;;;;;;14.67;9.00;;;;;;;;;;10268634;28;20027;-79
2022/10/23 19:02:49;;;;;;;16.77;7.32;;;;;;;;;;10269409;28;20023;-80
2022/10/23 19:07:50;;;;;;;11.93;6.03;;;;;;;;;;10279490;28;20030;-72
2022/10/23 19:12:50;;;;;;;12.25;5.80;;;;;;;;;;10284667;28;20027;-74
2022/10/23 19:17:57;;;;;;;13.18;5.32;;;;;;;;;;10290026;28;20042;-77
2022/10/23 19:22:58;;;;;;;11.82;5.72;;;;;;;;;;10287272;28;20023;-77
2022/10/23 19:27:59;;;;;;;23.90;6.85;;;;;;;;;;10277249;28;20022;-78
2022/10/23 19:33:00;;;;;;;14.05;5.90;;;;;;;;;;10265770;28;20118;-78
2022/10/23 19:38:00;;;;;;;13.98;6.45;;;;;;;;;;10286892;28;20113;-83
2022/10/23 19:43:01;;;;;;;11.20;6.00;;;;;;;;;;10251511;28;20115;-82
2022/10/23 19:48:01;;;;;;;15.27;5.82;;;;;;;;;;10262953;28;20270;-74
2022/10/23 19:53:01;;;;;;;11.25;4.97;;;;;;;;;;10265854;28;20501;-81
2022/10/23 19:58:01;;;;;;;10.65;5.72;;;;;;;;;;10263487;28;20023;-80
2022/10/23 20:03:02;;;;;;;9.27;4.95;;;;;;;;;;10279289;28;20026;-77
2022/10/23 20:08:02;;;;;;;14.00;5.83;;;;;;;;;;10262070;28;20045;-79
2022/10/23 20:13:02;;;;;;;14.88;5.65;;;;;;;;;;10259012;28;20266;-81
2022/10/23 20:18:03;;;;;;;9.15;5.13;;;;;;;;;;10266234;28;20187;-78
2022/10/23 20:23:05;;;;;;;15.45;6.60;;;;;;;;;;10268793;28;20632;-75
2022/10/23 20:28:06;;;;;;;12.20;6.15;;;;;;;;;;10283434;28;20509;-78
2022/10/23 20:33:06;;;;;;;12.73;6.45;;;;;;;;;;10251059;28;20058;-78
2022/10/23 20:38:08;;;;;;;7.75;4.68;;;;;;;;;;10268192;28;20034;-75
2022/10/23 20:43:08;;;;;;;11.73;4.03;;;;;;;;;;10263154;28;20022;-76
2022/10/23 20:48:09;;;;;;;6.32;3.80;;;;;;;;;;10278496;28;20449;-75
2022/10/23 20:53:10;;;;;;;7.37;3.93;;;;;;;;;;10263659;28;20035;-79
2022/10/23 20:58:10;;;;;;;8.63;3.92;;;;;;;;;;10262990;28;20042;-77
2022/10/23 21:03:12;;;;;;;6.80;4.03;;;;;;;;;;10278865;28;20615;-79
2022/10/23 21:08:12;;;;;;;9.43;4.45;;;;;;;;;;10272431;28;20031;-73
2022/10/23 21:13:12;;;;;;;6.57;3.67;;;;;;;;;;10262202;28;20034;-77
2022/10/23 21:18:16;;;;;;;12.75;4.90;;;;;;;;;;10281875;28;20121;-80
2022/10/23 21:23:16;;;;;;;9.00;3.90;;;;;;;;;;10283694;28;20022;-75
2022/10/23 21:28:17;;;;;;;9.15;4.75;;;;;;;;;;10284262;28;20030;-80
2022/10/23 21:33:17;;;;;;;7.82;4.70;;;;;;;;;;10272193;28;20452;-75
2022/10/23 21:38:17;;;;;;;9.60;4.57;;;;;;;;;;10267148;28;20031;-76
2022/10/23 21:43:18;;;;;;;12.52;5.25;;;;;;;;;;10283338;28;20014;-80
2022/10/23 21:48:18;;;;;;;12.82;5.35;;;;;;;;;;10287673;28;20019;-79
2022/10/23 21:53:19;;;;;;;9.32;4.57;;;;;;;;;;10298640;28;20101;-75
2022/10/23 21:58:19;;;;;;;9.00;3.67;;;;;;;;;;10294250;28;20658;-74
2022/10/23 22:03:19;;;;;;;5.40;3.53;;;;;;;;;;10293571;28;20023;-73
2022/10/23 22:08:19;;;;;;;6.00;3.67;;;;;;;;;;10294777;28;20019;-75
2022/10/23 22:13:20;;;;;;;8.13;3.53;;;;;;;;;;10284216;28;20390;-79
2022/10/23 22:18:20;;;;;;;5.57;3.00;;;;;;;;;;10284127;28;20030;-83
2022/10/23 22:23:20;;;;;;;5.57;3.53;;;;;;;;;;10284209;28;20575;-76
2022/10/23 22:28:21;;;;;;;6.63;3.42;;;;;;;;;;10284883;28;20516;-75
2022/10/23 22:33:21;;;;;;;7.07;3.70;;;;;;;;;;10284140;28;20055;-81
2022/10/23 22:38:21;;;;;;;5.90;3.08;;;;;;;;;;10283188;28;20520;-74
2022/10/23 22:43:21;;;;;;;9.15;3.38;;;;;;;;;;10283840;28;20113;-83
2022/10/23 22:48:22;;;;;;;7.35;5.10;;;;;;;;;;10282872;28;20026;-76
2022/10/23 22:53:22;;;;;;;9.07;3.80;;;;;;;;;;10282976;28;20031;-79
2022/10/23 22:58:23;;;;;;;11.45;4.30;;;;;;;;;;10281914;28;20019;-76
2022/10/23 23:03:24;;;;;;;5.93;3.85;;;;;;;;;;10283306;28;20556;-75
2022/10/23 23:08:25;;;;;;;11.07;4.43;;;;;;;;;;10283856;28;20033;-76
2022/10/23 23:13:25;;;;;;;11.45;4.60;;;;;;;;;;10283683;28;20022;-80
2022/10/23 23:18:26;;;;;;;7.65;3.85;;;;;;;;;;10273099;28;20019;-75
2022/10/23 23:23:26;;;;;;;8.65;4.15;;;;;;;;;;10282030;28;20031;-77
2022/10/23 23:28:27;;;;;;;7.67;4.40;;;;;;;;;;10283038;28;20405;-73
2022/10/23 23:33:27;;;;;;;7.35;3.55;;;;;;;;;;10280955;28;20341;-75
2022/10/23 23:38:27;;;;;;;7.40;4.40;;;;;;;;;;10281257;28;20042;-81
2022/10/23 23:43:27;;;;;;;9.05;5.43;;;;;;;;;;10282156;28;20051;-81
2022/10/23 23:48:28;;;;;;;8.45;4.63;;;;;;;;;;10241668;28;20023;-78
2022/10/23 23:53:28;;;;;;;9.50;5.10;;;;;;;;;;10279596;28;20034;-79
2022/10/23 23:58:28;;;;;;;9.60;4.83;;;;;;;;;;10280772;28;20038;-77
